Date,TemperatureHighF,TemperatureAvgF,TemperatureLowF,DewpointHighF,DewpointAvgF,DewpointLowF,HumidityHigh,HumidityAvg,HumidityLow,PressureMaxIn,PressureMinIn,WindSpeedMaxMPH,WindSpeedAvgMPH,GustSpeedMaxMPH,PrecipitationSumIn
2012-1-1,62.1,52.3,42.6,42.6,29.4,26.0,64,42,28,30.63,30.15,17,7,25,0.00
2012-1-2,57.8,44.8,28.0,30.4,25.6,22.0,83,50,26,30.77,30.61,14,3,17,0.00
2012-1-3,61.9,43.4,24.6,32.9,25.8,21.8,91,56,23,30.64,30.28,14,3,20,0.00
2012-1-4,66.4,50.8,35.1,42.1,35.3,30.0,91,59,30,30.34,30.23,10,2,15,0.00
2012-1-5,67.5,48.9,33.6,48.9,39.7,30.4,90,72,40,30.36,30.12,5,1,8,0.00
2012-1-6,73.2,59.9,47.8,53.5,49.6,44.3,93,72,39,30.12,29.88,18,3,23,0.00
2012-1-7,64.6,53.5,44.4,52.0,40.5,37.0,92,64,38,30.08,29.92,14,3,15,0.00
2012-1-8,61.5,53.5,41.2,50.9,45.4,37.1,89,74,65,30.08,29.98,17,4,18,0.02
2012-1-9,53.9,47.3,40.2,48.8,44.2,37.1,92,89,82,30.11,29.97,20,7,26,0.54
2012-1-10,55.2,45.7,35.8,41.7,36.8,31.5,90,73,45,30.09,29.91,24,8,30,0.00
2012-1-11,77.4,53.2,31.4,44.1,35.7,29.1,93,58,20,30.04,29.66,27,7,32,0.00
2012-1-12,46.0,38.7,26.6,34.9,18.0,6.8,73,45,21,30.35,30.01,26,10,32,0.00
2012-1-13,55.8,40.2,27.3,28.9,23.7,17.4,81,56,22,30.40,30.26,9,1,11,0.00
2012-1-14,66.7,45.4,24.6,31.4,25.3,20.4,87,52,18,30.46,30.29,8,1,13,0.00
2012-1-15,62.7,49.4,30.3,57.5,40.9,25.2,84,73,61,30.34,30.16,15,3,20,0.00
2012-1-16,70.4,64.9,60.0,61.6,59.4,56.6,92,83,73,30.16,29.92,15,5,21,0.00
2012-1-17,68.5,59.5,39.9,62.5,46.7,26.3,94,65,37,30.33,29.92,21,6,24,0.00
2012-1-18,68.8,48.1,28.0,39.2,30.9,23.4,84,53,30,30.35,30.02,10,2,14,0.00
2012-1-19,83.0,60.1,37.7,52.0,42.0,33.6,92,59,17,30.02,29.81,15,2,19,0.00
2012-1-20,82.1,62.9,50.9,63.3,55.1,45.2,94,78,40,29.85,29.70,17,3,19,0.00
2012-1-21,60.1,49.6,40.2,54.4,38.9,31.6,95,68,45,30.09,29.83,14,5,18,0.00
2012-1-22,81.5,61.4,44.0,64.2,43.1,19.1,90,59,14,29.95,29.70,20,4,25,0.00
2012-1-23,66.8,54.1,40.3,40.1,36.3,24.6,83,53,28,30.15,29.95,11,2,11,0.00
2012-1-24,66.2,54.2,40.0,64.6,49.5,35.1,95,84,68,30.03,29.78,10,3,13,0.45
2012-1-25,67.4,54.7,46.7,65.0,50.9,42.7,94,87,82,29.97,29.67,27,9,32,0.43
2012-1-26,66.6,52.1,39.7,46.5,41.2,34.0,93,71,32,30.11,29.95,20,5,25,0.02
2012-1-27,72.6,56.4,32.9,46.4,40.8,30.8,94,60,33,30.12,29.91,21,5,27,0.00
2012-1-28,58.6,48.8,32.9,40.0,29.3,23.1,81,49,28,30.46,30.12,19,6,26,0.00
2012-1-29,62.7,47.6,28.7,36.8,32.1,25.5,90,58,33,30.53,30.32,14,2,15,0.00
2012-1-30,63.2,53.4,38.7,56.9,47.2,33.5,92,80,70,30.34,30.12,15,4,19,0.02
2012-1-31,74.6,64.1,52.7,59.9,57.2,50.2,93,80,56,30.14,29.98,16,3,19,0.00
2012-2-1,79.4,65.1,51.0,63.0,54.1,44.6,94,71,37,30.11,30.00,12,2,14,0.00
2012-2-2,69.3,60.7,46.3,63.7,55.2,43.4,91,82,62,30.09,29.90,14,4,17,0.00
2012-2-3,74.8,68.9,64.2,65.1,62.8,60.6,93,81,65,29.95,29.86,14,4,18,0.06
2012-2-4,65.0,53.3,47.6,62.0,41.0,34.6,91,63,49,30.31,29.95,22,10,24,0.41
2012-2-5,50.4,45.0,39.2,36.8,34.5,32.7,79,67,55,30.42,30.31,20,7,24,0.03
2012-2-6,53.2,45.9,37.4,41.8,36.6,32.5,85,71,53,30.39,30.16,10,2,14,0.00
2012-2-7,63.8,51.7,34.9,46.2,40.9,32.5,93,68,47,30.36,30.17,14,2,17,0.00
2012-2-8,52.5,44.9,37.1,41.6,37.4,33.6,89,75,58,30.52,30.33,15,4,16,0.00
2012-2-9,58.5,46.0,31.8,44.1,38.3,29.8,93,76,52,30.37,30.12,13,4,16,0.00
2012-2-10,61.8,52.6,45.2,47.7,41.4,33.6,91,68,36,30.35,30.08,22,6,24,0.10
2012-2-11,47.5,39.9,32.4,34.8,24.4,15.9,83,56,34,30.60,30.34,16,6,18,0.00
2012-2-12,38.8,33.1,26.6,33.8,22.4,16.1,87,65,48,30.61,30.18,14,5,14,0.03
2012-2-13,67.5,46.3,37.2,54.2,41.2,31.7,93,84,45,30.20,29.84,10,2,12,0.32
2012-2-14,76.1,56.7,36.2,59.1,48.3,34.3,94,77,40,29.97,29.80,16,4,20,0.01
2012-2-15,74.0,65.4,52.5,64.3,51.5,34.0,93,64,31,30.03,29.85,19,4,21,0.01
2012-2-16,61.4,53.3,46.3,46.9,42.8,35.2,83,68,47,30.27,30.02,12,4,14,0.00
2012-2-17,59.6,53.5,48.6,53.9,49.9,44.9,92,88,79,30.13,29.85,14,4,19,0.96
2012-2-18,54.4,51.9,47.1,52.1,49.1,44.0,92,90,85,30.10,29.79,22,7,23,1.13
2012-2-19,59.7,50.7,40.4,47.2,43.9,37.6,93,78,58,30.18,30.00,11,4,17,0.00
2012-2-20,69.8,56.4,46.2,56.3,49.5,43.1,93,79,53,30.13,29.95,15,5,20,0.00
2012-2-21,74.2,58.6,37.7,57.0,49.2,35.6,94,74,46,30.19,29.95,15,3,17,0.00
2012-2-22,84.8,67.6,52.3,60.7,49.2,32.8,92,59,16,29.95,29.65,18,2,20,0.00
2012-2-23,88.1,69.9,52.2,51.6,44.4,31.6,82,45,14,29.86,29.51,28,4,30,0.00
2012-2-24,61.3,53.1,42.4,41.5,24.8,18.0,54,34,21,30.39,29.79,26,11,31,0.00
2012-2-25,61.7,48.5,30.2,35.8,25.8,16.6,89,47,18,30.46,30.21,16,4,20,0.00
2012-2-26,65.8,52.7,35.3,51.0,42.3,29.9,85,68,52,30.23,30.01,16,5,20,0.00
2012-2-27,68.3,62.0,56.9,59.7,56.5,50.4,91,82,71,30.24,30.09,15,6,18,0.02
2012-2-28,76.5,67.9,61.0,66.4,62.3,58.2,95,83,64,30.12,29.85,26,7,26,0.01
2012-2-29,76.7,66.4,48.1,65.4,49.7,29.0,92,61,19,30.03,29.89,13,2,17,0.01
2012-3-1,78.9,62.0,43.6,66.6,55.7,40.6,92,80,63,29.94,29.66,15,3,19,0.00
2012-3-2,74.7,67.2,55.8,66.1,50.8,35.5,93,60,26,29.85,29.62,18,5,24,0.00
2012-3-3,62.0,52.4,33.9,39.1,30.3,18.8,86,45,23,30.22,29.81,20,7,26,0.00
2012-3-4,73.8,52.1,29.8,42.7,31.1,19.7,91,54,14,30.28,30.11,15,2,18,0.00
2012-3-5,74.7,59.8,38.8,49.4,37.2,29.4,82,47,19,30.34,30.18,19,5,22,0.00
2012-3-6,73.4,63.2,52.3,57.7,52.7,48.4,89,70,49,30.21,29.88,31,10,39,0.00
2012-3-7,71.1,68.0,64.1,64.8,61.7,57.2,87,80,76,29.96,29.82,21,10,25,0.00
2012-3-8,78.9,62.9,44.0,67.3,56.3,38.5,87,79,59,30.27,29.84,24,10,28,0.00
2012-3-9,44.1,41.6,40.0,39.6,37.9,35.5,91,87,76,30.41,30.21,26,7,34,0.39
2012-3-10,50.0,47.0,42.7,48.3,44.3,38.6,94,90,85,30.34,30.06,11,2,11,0.36
2012-3-11,71.1,57.6,49.6,57.5,51.8,47.7,94,82,57,30.07,29.93,18,2,18,0.12
2012-3-12,84.5,63.1,44.1,62.6,52.7,41.9,95,74,27,30.08,29.96,14,3,17,0.01
2012-3-13,78.3,69.2,60.3,67.6,63.4,57.4,94,82,61,30.10,29.96,20,5,20,0.00
2012-3-14,78.2,70.5,65.5,67.5,64.5,61.7,89,81,66,30.08,29.98,17,6,19,0.00
2012-3-15,80.2,71.2,65.4,66.6,64.1,61.8,89,79,58,30.12,29.99,16,5,18,0.00
2012-3-16,78.0,70.8,65.7,67.9,64.3,61.9,91,80,61,30.08,29.93,21,6,21,0.00
2012-3-17,78.5,71.1,65.6,65.5,63.5,61.6,88,78,58,30.01,29.88,19,8,22,0.00
2012-3-18,74.4,70.7,65.6,67.0,64.5,61.4,87,81,73,29.96,29.80,22,10,28,0.00
2012-3-19,78.4,70.8,56.8,67.1,63.8,54.6,93,79,61,29.82,29.52,26,11,32,2.60
2012-3-20,64.5,56.2,49.5,54.5,49.5,46.0,93,79,54,29.85,29.58,20,4,26,1.84
2012-3-21,67.7,55.1,39.0,47.8,42.2,36.3,92,65,36,29.89,29.80,19,3,21,0.00
2012-3-22,81.7,62.2,42.0,49.6,42.9,36.3,90,56,20,30.00,29.79,25,5,30,0.00
2012-3-23,78.8,59.8,40.5,55.4,47.3,38.6,93,67,37,30.06,29.90,10,2,12,0.00
2012-3-24,79.1,64.3,50.2,66.4,57.9,48.0,93,81,59,30.05,29.92,10,2,12,0.00
2012-3-25,82.8,66.3,51.8,67.2,57.6,50.1,95,77,44,30.07,29.95,9,2,12,0.00
2012-3-26,80.7,67.2,53.6,62.7,55.8,51.5,95,70,39,30.06,29.92,16,4,20,0.01
2012-3-27,77.5,66.1,54.1,66.5,59.4,50.6,90,80,66,30.04,29.93,13,3,13,0.00
2012-3-28,72.3,67.0,60.9,66.7,63.0,58.6,93,87,78,30.01,29.88,11,4,14,0.20
2012-3-29,78.2,69.6,59.6,69.1,64.4,57.6,95,84,68,29.94,29.75,10,2,11,0.00
2012-3-30,85.7,72.8,59.9,69.0,64.1,57.7,95,76,43,29.85,29.71,12,4,16,0.00
2012-3-31,92.4,74.0,58.3,69.0,62.7,55.5,95,72,30,29.84,29.69,12,3,16,0.00
2012-4-1,88.8,75.0,63.2,68.8,64.3,58.8,92,72,37,29.78,29.62,24,5,24,0.00
2012-4-2,85.1,75.0,66.8,69.5,65.3,58.1,91,74,42,29.67,29.49,16,8,20,0.00
2012-4-3,83.0,72.9,54.7,69.6,60.5,40.9,91,69,25,29.80,29.59,15,5,21,0.00
2012-4-4,83.1,64.3,45.5,59.4,49.7,42.5,91,64,27,29.91,29.72,9,2,12,0.00
2012-4-5,87.0,68.9,51.1,63.3,54.8,43.8,94,66,23,29.87,29.75,12,2,13,0.00
2012-4-6,81.6,68.8,54.5,62.8,57.5,51.0,89,69,49,29.99,29.87,15,4,17,0.00
2012-4-7,82.0,72.0,64.6,65.6,62.9,60.0,91,74,53,30.16,29.98,12,4,17,0.00
2012-4-8,82.7,70.4,60.0,65.2,60.1,57.1,92,72,45,30.23,30.11,12,2,17,0.00
2012-4-9,81.3,68.8,55.1,65.3,58.9,53.1,94,73,46,30.17,30.02,11,2,14,0.00
2012-4-10,83.4,70.0,56.5,61.7,57.8,53.9,92,68,38,30.11,29.98,13,3,18,0.00
2012-4-11,82.6,69.6,54.8,64.3,59.0,52.5,94,72,45,30.10,29.93,14,4,16,0.00
2012-4-12,80.9,73.3,67.8,68.8,64.6,60.5,87,75,59,30.01,29.85,17,7,22,0.02
2012-4-13,80.5,73.5,68.3,68.5,66.0,63.5,87,78,65,29.94,29.78,19,8,20,0.00
2012-4-14,79.9,75.0,72.3,68.6,67.3,66.1,82,77,67,29.84,29.66,26,11,29,0.00
2012-4-15,79.2,71.1,52.5,69.2,57.7,44.8,88,65,30,29.91,29.61,23,6,28,0.05
2012-4-16,74.3,61.1,46.0,56.9,50.2,43.2,93,70,42,30.14,29.91,21,4,21,0.00
2012-4-17,81.3,66.3,48.6,59.7,49.5,38.6,94,62,22,30.22,30.09,14,3,15,0.00
2012-4-18,84.0,68.1,50.7,61.2,52.9,46.5,91,62,30,30.16,29.93,13,3,16,0.00
2012-4-19,85.2,71.3,56.3,59.6,53.6,49.7,83,56,34,29.98,29.70,18,5,19,0.00
2012-4-20,75.9,68.0,61.3,63.7,56.2,44.4,87,68,34,30.01,29.68,25,8,27,0.08
2012-4-21,80.1,63.1,47.0,48.5,44.3,40.8,85,54,25,30.07,29.95,18,5,19,0.00
2012-4-22,89.4,67.8,46.0,53.0,46.8,42.2,90,54,21,30.12,29.98,11,2,18,0.00
2012-4-23,80.6,67.4,50.5,49.5,42.2,37.5,71,42,25,30.23,30.00,12,3,16,0.00
2012-4-24,87.1,69.6,48.5,58.8,50.2,42.4,86,54,30,30.04,29.83,20,4,24,0.00
2012-4-25,93.1,78.7,65.9,69.3,62.7,58.4,83,61,36,29.89,29.72,19,7,22,0.00
2012-4-26,95.9,80.1,66.4,69.3,63.6,53.8,85,61,25,29.81,29.71,17,6,21,0.00
2012-4-27,90.2,78.1,69.0,67.3,61.3,56.4,82,59,34,29.81,29.67,21,8,23,0.00
2012-4-28,89.3,77.3,68.3,66.7,63.3,59.1,81,64,39,29.82,29.70,23,10,26,0.00
2012-4-29,85.4,77.6,71.5,66.8,64.3,58.9,84,65,42,29.89,29.76,23,10,26,0.00
2012-4-30,84.7,77.2,72.0,69.8,67.4,64.8,86,73,54,29.94,29.82,20,7,24,0.00
2012-5-1,87.9,77.4,71.8,68.7,66.6,63.1,85,71,47,29.91,29.74,18,8,24,0.00
2012-5-2,85.7,76.1,71.3,68.2,66.0,64.1,82,72,53,29.88,29.77,14,5,17,0.00
2012-5-3,93.4,80.5,68.6,70.4,67.3,64.1,90,66,40,29.92,29.77,16,6,20,0.00
2012-5-4,93.8,82.4,73.6,70.6,67.9,65.0,81,64,40,29.92,29.76,22,8,28,0.00
2012-5-5,96.1,82.3,69.9,72.4,68.8,60.2,88,66,40,29.91,29.68,26,7,34,0.00
2012-5-6,95.5,81.4,67.9,69.5,63.3,55.4,84,56,33,29.87,29.69,23,7,28,0.04
2012-5-7,92.2,78.2,63.0,72.2,67.5,59.7,90,71,42,29.90,29.70,30,6,34,0.18
2012-5-8,68.3,65.7,63.1,64.4,62.3,60.1,91,89,84,29.99,29.85,14,4,20,0.23
2012-5-9,79.8,69.5,60.4,63.5,60.7,57.5,91,75,52,30.06,29.87,11,3,15,0.03
2012-5-10,71.8,67.5,61.5,66.4,61.7,57.9,91,82,72,29.92,29.70,20,6,28,2.08
2012-5-11,79.4,67.0,61.3,66.2,61.3,59.0,93,83,55,29.94,29.75,10,2,13,0.00
2012-5-12,77.4,68.7,59.5,61.4,59.1,56.9,92,73,52,30.13,29.94,15,5,21,0.00
2012-5-13,81.8,70.4,58.6,61.1,57.6,54.0,92,67,40,30.19,30.03,12,4,17,0.00
2012-5-14,82.1,70.4,58.6,63.1,58.8,55.3,92,69,43,30.08,29.94,12,3,15,0.67
2012-5-15,75.6,65.8,58.5,64.1,60.3,55.8,93,84,53,30.08,29.99,11,2,13,0.95
2012-5-16,86.6,73.3,52.9,63.3,55.2,49.7,95,59,30,30.09,29.93,17,2,17,0.01
2012-5-17,87.9,70.8,55.7,64.2,57.1,50.2,94,67,29,30.01,29.85,10,2,19,0.00
2012-5-18,86.5,76.0,61.7,63.8,60.6,57.5,87,61,41,29.92,29.78,17,6,22,0.00
2012-5-19,87.2,77.8,69.4,67.6,64.0,61.1,85,65,43,29.93,29.82,13,8,23,0.00
2012-5-20,86.4,76.3,65.2,68.4,62.3,57.5,88,64,39,30.07,29.92,12,4,19,0.00
2012-5-21,91.2,75.8,61.4,65.8,61.0,57.4,92,64,35,30.12,29.98,10,2,13,0.00
2012-5-22,90.6,78.2,63.2,65.8,61.4,58.6,91,60,36,30.00,29.77,13,3,18,0.00
2012-5-23,90.8,79.9,66.7,70.9,66.1,57.5,85,64,49,29.79,29.54,22,8,27,0.00
2012-5-24,92.3,81.4,73.8,72.1,69.5,67.2,81,68,50,29.68,29.56,18,9,20,0.00
2012-5-25,93.3,82.3,72.9,71.7,69.2,66.1,84,66,45,29.88,29.68,23,10,25,0.00
2012-5-26,90.7,82.1,73.7,71.1,67.8,63.0,86,64,41,29.95,29.82,20,9,25,0.00
2012-5-27,89.3,79.5,70.8,68.5,65.9,62.5,86,65,41,29.92,29.78,18,8,20,0.00
2012-5-28,92.4,81.2,69.2,69.3,67.0,64.4,90,64,43,29.86,29.73,16,5,18,0.00
2012-5-29,95.2,83.8,72.0,71.8,69.2,67.4,86,63,42,29.86,29.74,16,5,16,0.00
2012-5-30,89.9,80.9,71.4,71.3,69.1,65.7,89,69,49,29.86,29.55,28,7,39,0.00
2012-5-31,92.1,80.9,72.9,70.0,64.3,53.5,86,60,29,29.87,29.64,25,7,30,0.00
2012-6-1,90.5,81.0,66.9,64.8,59.7,51.7,84,50,33,29.99,29.78,12,4,15,0.00
2012-6-2,93.3,81.4,70.1,69.1,65.4,57.8,87,61,31,29.90,29.74,14,5,19,0.00
2012-6-3,92.0,83.2,71.4,71.8,68.8,64.1,88,63,40,29.88,29.76,19,7,21,0.00
2012-6-4,91.9,82.4,73.5,71.4,69.7,67.8,85,67,47,29.86,29.69,14,5,16,0.00
2012-6-5,95.5,85.8,70.3,71.7,67.1,64.3,90,56,37,29.81,29.64,14,3,16,0.00
2012-6-6,96.1,84.2,69.3,71.6,66.0,61.3,87,57,33,29.77,29.66,14,3,24,0.00
2012-6-7,83.6,75.4,65.8,71.9,67.2,62.8,91,76,55,29.94,29.75,21,5,24,0.57
2012-6-8,83.7,75.4,69.4,69.0,66.9,65.6,90,76,57,29.94,29.80,12,3,15,0.00
2012-6-9,92.3,79.4,64.2,68.4,65.4,61.5,91,65,38,29.85,29.66,15,4,17,0.00
2012-6-10,96.8,86.6,72.7,73.7,70.5,66.1,85,60,45,29.75,29.66,17,8,19,0.00
2012-6-11,99.2,88.0,76.6,73.1,69.7,63.6,85,58,32,29.92,29.73,16,7,21,0.00
2012-6-12,93.5,82.8,70.6,74.8,69.7,62.4,82,66,44,29.98,29.85,22,7,37,0.00
2012-6-13,94.9,83.0,68.5,73.4,67.7,62.7,88,63,39,30.06,29.77,16,6,23,0.01
2012-6-14,93.3,84.4,74.8,72.7,69.7,66.1,85,63,43,29.88,29.75,20,8,25,0.00
2012-6-15,94.5,84.1,72.4,71.1,68.2,64.0,87,61,37,29.92,29.79,19,7,22,0.00
2012-6-16,95.1,82.7,73.1,72.5,68.2,62.8,89,64,36,29.98,29.83,20,6,21,0.00
2012-6-17,92.6,82.5,69.9,71.6,68.0,64.4,91,64,41,29.98,29.77,17,5,22,0.18
2012-6-18,92.7,81.4,69.7,70.5,67.1,64.3,88,64,42,29.82,29.67,20,6,23,0.00
2012-6-19,93.6,82.5,73.2,71.9,69.6,65.4,88,67,41,29.82,29.72,24,10,28,0.00
2012-6-20,85.6,79.2,72.0,75.6,71.1,67.6,91,77,60,29.92,29.80,16,7,23,0.40
2012-6-21,92.4,82.8,72.8,73.1,68.3,63.9,91,64,41,30.00,29.87,15,4,18,0.00
2012-6-22,93.7,80.0,66.7,71.7,65.0,60.2,91,64,34,29.95,29.80,10,2,13,0.00
2012-6-23,95.2,82.7,68.7,69.5,63.8,56.2,87,57,29,29.87,29.78,14,2,16,0.00
2012-6-24,98.9,85.4,68.9,72.1,65.3,59.8,88,55,29,29.94,29.81,12,2,12,0.00
2012-6-25,102.1,87.8,69.7,70.6,64.0,56.2,86,50,23,29.90,29.73,16,2,18,0.00
2012-6-26,105.5,89.5,67.7,68.6,62.0,57.0,81,45,21,29.80,29.65,10,2,13,0.00
2012-6-27,102.9,91.0,74.2,70.2,65.4,60.6,79,46,26,29.87,29.72,15,4,17,0.00
2012-6-28,96.5,85.7,72.7,67.4,63.3,57.6,77,50,28,29.98,29.87,15,4,19,0.00
2012-6-29,96.4,84.2,74.1,72.8,68.1,62.4,85,60,33,29.96,29.80,22,5,27,0.00
2012-6-30,92.3,82.3,72.5,72.5,69.3,65.7,89,66,44,29.86,29.76,24,7,24,0.00
2012-7-1,86.4,79.4,71.8,72.9,69.8,67.4,87,73,56,29.96,29.83,18,6,21,0.02
2012-7-2,94.9,84.0,73.8,73.9,67.8,60.4,90,62,36,30.02,29.88,21,7,24,0.01
2012-7-3,94.9,83.8,73.6,72.9,68.0,63.1,86,62,36,30.01,29.83,16,6,23,0.00
2012-7-4,95.2,85.5,74.4,72.3,67.8,62.5,86,59,35,29.97,29.82,21,7,22,0.00
2012-7-5,96.3,87.2,74.2,71.7,66.7,60.0,86,54,31,29.98,29.86,18,7,20,0.00
2012-7-6,96.2,86.6,72.0,72.5,65.3,58.8,89,52,30,30.00,29.85,14,4,17,0.00
2012-7-7,97.4,85.8,71.6,71.0,67.3,61.0,86,57,33,30.00,29.85,21,4,26,0.10
2012-7-8,95.4,80.8,71.9,73.8,70.6,65.5,93,73,40,29.97,29.85,22,2,27,0.38
2012-7-9,95.5,79.9,72.7,74.5,70.9,66.3,93,77,42,29.96,29.80,24,2,24,0.62
2012-7-10,90.1,80.1,72.3,74.4,71.6,68.8,93,77,52,29.91,29.78,12,2,16,0.43
2012-7-11,85.1,77.0,72.4,75.9,72.8,70.3,94,87,70,29.92,29.84,11,2,13,0.18
2012-7-12,91.5,82.7,72.1,76.2,71.7,67.7,94,72,48,29.92,29.83,15,2,18,0.00
2012-7-13,96.1,83.0,71.7,75.2,70.9,65.7,92,69,40,29.94,29.84,13,2,20,0.00
2012-7-14,92.4,82.7,68.3,75.5,70.0,63.6,92,68,44,29.98,29.84,27,3,32,0.46
2012-7-15,88.6,76.6,68.6,75.2,69.1,63.9,95,79,47,29.99,29.88,17,3,22,0.01
2012-7-16,91.9,81.9,69.9,73.0,68.9,63.7,92,68,40,29.97,29.84,16,6,18,0.00
2012-7-17,90.2,81.8,72.3,74.4,71.6,68.3,90,72,50,29.95,29.83,14,5,18,0.00
2012-7-18,89.5,82.7,74.6,74.6,71.3,64.8,90,70,46,29.99,29.89,14,4,15,0.00
2012-7-19,94.7,82.9,69.9,74.7,69.9,64.3,93,68,38,30.08,29.95,11,3,15,0.00
2012-7-20,98.9,88.1,72.4,73.2,68.5,63.8,87,55,33,30.05,29.89,13,2,15,0.00
2012-7-21,100.7,90.5,71.9,73.4,67.0,60.0,88,49,27,29.98,29.82,10,3,14,0.00
2012-7-22,98.0,86.1,76.7,74.2,69.3,64.4,80,59,34,29.99,29.87,17,5,21,0.00
2012-7-23,94.8,84.9,75.1,73.1,69.2,62.7,87,62,36,30.03,29.93,17,6,22,0.00
2012-7-24,95.1,85.4,74.5,73.9,69.7,65.5,89,62,39,30.03,29.86,15,6,19,0.00
2012-7-25,95.1,86.5,75.9,72.9,70.0,66.7,83,60,41,29.93,29.77,20,8,24,0.00
2012-7-26,95.0,85.4,75.3,72.8,70.6,68.0,84,63,43,29.90,29.76,16,7,24,0.00
2012-7-27,96.1,86.6,73.6,74.0,70.4,64.1,89,61,36,30.00,29.90,15,5,18,0.00
2012-7-28,100.1,87.9,70.0,72.3,64.0,52.5,91,50,21,30.09,29.94,12,3,15,0.00
2012-7-29,99.7,87.3,70.4,72.0,64.7,57.2,86,51,25,30.04,29.89,13,3,17,0.00
2012-7-30,100.2,87.7,69.8,72.0,66.2,60.6,86,52,28,29.98,29.82,14,4,22,0.00
2012-7-31,102.3,88.8,74.1,72.1,66.9,62.8,81,52,29,29.96,29.83,15,4,17,0.00
2012-8-1,102.7,89.1,74.2,70.4,64.5,55.3,78,48,22,29.93,29.78,18,5,22,0.00
2012-8-2,101.9,86.9,70.7,69.3,63.6,58.1,75,49,24,29.86,29.73,15,5,23,0.00
2012-8-3,99.8,87.4,72.8,70.2,65.3,58.8,78,51,28,29.85,29.74,17,6,22,0.00
2012-8-4,97.0,91.7,72.2,72.6,66.6,60.1,89,46,30,29.95,29.75,21,7,21,0.00
2012-8-5,97.9,85.2,70.5,73.0,67.9,60.1,90,59,32,30.07,29.95,18,4,24,0.00
2012-8-6,98.0,85.1,69.9,71.4,66.2,62.0,88,57,34,30.06,29.90,15,3,19,0.00
2012-8-7,100.5,87.6,71.5,71.7,66.7,62.9,83,53,32,29.93,29.80,15,3,20,0.00
2012-8-8,99.3,86.8,73.0,71.1,67.9,64.2,83,56,33,29.95,29.83,18,3,21,0.00
2012-8-9,101.4,87.6,74.7,71.6,68.4,64.9,83,56,32,29.95,29.79,14,2,20,0.00
2012-8-10,104.2,87.8,72.6,72.3,66.0,54.7,84,53,21,29.90,29.74,21,3,21,0.00
2012-8-11,102.6,88.8,70.9,66.6,62.2,57.7,72,44,23,29.90,29.78,16,3,16,0.00
2012-8-12,100.9,89.2,76.2,70.3,66.3,63.3,69,49,30,29.91,29.78,17,5,18,0.00
2012-8-13,104.1,87.6,77.6,72.3,68.1,62.6,72,55,28,29.97,29.82,15,4,22,0.00
2012-8-14,99.3,87.6,75.1,73.9,67.2,61.0,83,55,29,29.94,29.76,15,4,20,0.00
2012-8-15,99.1,87.8,75.6,72.6,65.0,56.7,85,50,26,29.88,29.75,15,7,22,0.00
2012-8-16,98.2,86.8,74.5,71.3,67.2,62.1,84,55,31,29.96,29.82,20,7,20,0.00
2012-8-17,98.6,87.3,75.5,72.8,68.1,62.4,85,56,31,29.96,29.78,17,4,20,0.00
2012-8-18,88.1,80.7,73.2,74.5,70.3,67.9,86,71,57,29.91,29.75,17,4,19,0.07
2012-8-19,91.2,78.2,69.4,72.2,68.5,65.8,92,74,46,29.95,29.83,13,3,20,0.00
2012-8-20,95.9,81.8,64.5,72.6,63.5,59.3,94,59,33,29.96,29.81,14,3,18,0.00
2012-8-21,91.4,78.0,70.8,69.9,62.6,57.6,79,60,39,29.99,29.89,15,5,23,0.01
2012-8-22,90.0,77.2,68.8,72.9,65.5,62.7,88,69,44,30.06,29.92,11,3,14,0.02
2012-8-23,94.7,82.2,71.0,71.3,65.2,60.2,89,60,35,29.99,29.84,13,4,17,0.00
2012-8-24,96.3,83.9,72.6,73.1,68.2,63.4,90,63,35,29.90,29.72,14,5,18,0.00
2012-8-25,96.0,84.8,75.6,71.3,68.1,63.1,81,59,34,29.85,29.74,18,8,22,0.00
2012-8-26,94.7,84.4,76.9,72.5,70.4,66.0,84,65,41,29.97,29.84,18,6,22,0.00
2012-8-27,95.2,84.0,75.6,72.1,68.6,60.9,83,62,39,30.03,29.88,14,4,23,0.00
2012-8-28,96.2,83.9,71.2,71.7,68.8,64.9,89,63,37,29.92,29.77,15,5,20,0.00
2012-8-29,94.9,86.6,78.3,71.1,63.7,54.3,72,49,29,29.84,29.68,22,8,31,0.00
2012-8-30,99.0,87.4,72.3,66.9,59.9,52.5,61,41,25,29.77,29.65,21,6,24,0.00
2012-8-31,98.9,84.9,68.3,71.2,63.8,58.9,76,52,31,29.93,29.75,15,3,19,0.00
2012-9-1,97.9,85.6,75.1,74.0,70.0,64.1,87,62,34,30.01,29.89,16,6,20,0.00
2012-9-2,97.7,85.5,71.9,72.2,67.3,59.3,87,58,33,30.01,29.84,15,4,21,0.00
2012-9-3,99.6,84.3,72.7,70.4,65.8,56.2,85,58,24,29.97,29.80,13,4,15,0.00
2012-9-4,100.9,87.9,75.4,71.7,66.8,57.6,84,54,25,29.92,29.75,16,5,17,0.00
2012-9-5,100.8,87.0,72.3,71.4,64.0,56.2,86,51,25,29.85,29.72,13,4,14,0.00
2012-9-6,102.3,87.2,73.2,70.6,65.1,61.6,81,51,27,29.91,29.76,15,3,15,0.00
2012-9-7,102.1,88.2,72.6,71.1,63.0,56.6,78,47,23,29.86,29.70,11,3,16,0.00
2012-9-8,84.6,78.8,71.2,63.4,52.7,39.2,66,43,22,30.05,29.77,23,9,31,0.00
2012-9-9,90.5,76.1,54.7,50.9,41.2,28.6,67,32,11,30.13,29.98,13,4,15,0.00
2012-9-10,93.0,75.3,51.7,50.0,42.4,37.7,68,34,15,30.09,29.93,12,2,16,0.00
2012-9-11,91.1,75.9,57.5,63.1,56.8,49.6,90,56,26,30.05,29.90,14,4,19,0.00
2012-9-12,95.2,82.8,72.6,70.7,67.5,58.9,86,63,33,30.01,29.84,14,6,22,0.00
2012-9-13,92.1,76.9,69.2,73.3,69.8,66.9,93,80,44,30.11,29.94,11,5,17,2.64
2012-9-14,70.0,66.7,64.3,67.4,63.0,60.5,92,88,80,30.21,30.12,15,5,17,0.10
2012-9-15,80.7,70.8,63.6,66.0,61.8,59.4,87,74,57,30.20,30.05,9,3,12,0.00
2012-9-16,71.5,66.4,64.4,65.0,63.2,61.6,93,89,71,30.09,29.93,6,2,9,0.77
2012-9-17,83.6,71.7,63.8,66.9,64.1,61.7,94,79,51,29.95,29.77,12,2,12,0.00
2012-9-18,82.9,73.1,63.3,68.6,63.0,60.0,93,73,47,30.05,29.85,16,4,28,0.00
2012-9-19,86.2,71.0,55.9,62.6,56.8,52.7,90,65,33,30.12,29.99,10,2,11,0.00
2012-9-20,89.1,73.8,60.1,67.9,60.4,52.4,91,67,29,30.06,29.92,11,2,14,0.00
2012-9-21,89.5,74.9,58.5,63.3,55.9,44.9,90,57,22,30.00,29.89,9,2,11,0.00
2012-9-22,90.1,74.2,58.4,65.4,58.8,53.6,90,63,29,30.08,29.96,10,2,12,0.00
2012-9-23,90.4,75.1,60.8,67.9,61.4,58.0,91,66,36,30.15,30.04,9,2,11,0.00
2012-9-24,90.5,77.8,65.1,70.4,64.5,58.6,93,67,35,30.10,29.93,16,3,20,0.00
2012-9-25,88.6,79.7,71.4,68.7,65.4,60.3,85,64,40,29.98,29.84,18,7,24,0.00
2012-9-26,88.1,79.3,72.3,70.2,66.2,61.8,86,66,44,29.99,29.88,14,5,19,0.00
2012-9-27,86.6,76.8,67.0,71.6,66.9,63.6,91,73,51,30.05,29.91,13,4,13,0.00
2012-9-28,84.4,76.1,68.3,72.5,68.8,65.3,91,79,60,30.00,29.86,16,3,17,0.13
2012-9-29,78.8,71.3,66.8,73.8,68.4,63.5,93,91,84,29.91,29.65,21,6,23,1.34
2012-9-30,77.1,68.9,61.0,66.1,63.1,58.0,91,82,65,29.87,29.77,19,8,25,0.01
2012-10-1,81.5,68.9,57.8,64.1,57.4,51.5,94,70,37,29.88,29.79,15,3,20,0.00
2012-10-2,77.5,66.8,56.1,58.0,54.7,52.0,89,67,42,29.98,29.87,16,4,19,0.00
2012-10-3,82.8,67.7,51.6,59.3,55.3,49.7,94,68,40,30.00,29.90,14,3,17,0.00
2012-10-4,88.8,77.3,67.5,71.6,67.4,59.1,88,73,51,30.03,29.96,16,7,22,0.00
2012-10-5,86.8,79.8,68.4,68.3,64.2,61.9,90,61,44,30.04,29.89,14,4,17,0.00
2012-10-6,72.0,61.1,52.3,66.2,54.5,47.1,84,79,73,30.16,29.94,14,6,20,0.00
2012-10-7,55.9,51.4,48.1,47.0,42.2,38.3,86,71,60,30.26,30.15,18,7,18,0.00
2012-10-8,67.9,56.2,47.6,51.8,44.6,38.2,80,66,51,30.26,30.05,10,3,11,0.00
2012-10-9,80.8,68.1,58.4,66.0,59.2,50.9,89,74,58,30.07,29.87,13,5,23,0.00
2012-10-10,84.5,74.7,62.2,71.5,67.7,58.9,93,80,58,30.08,29.95,10,2,12,0.00
2012-10-11,85.2,76.2,69.7,74.0,70.3,66.6,91,83,63,30.08,29.98,20,6,21,0.00
2012-10-12,85.1,76.8,69.4,70.1,67.9,65.7,91,75,53,30.12,30.00,14,5,17,0.00
2012-10-13,82.5,77.0,73.7,74.4,71.3,68.7,87,83,70,30.04,29.81,15,6,18,0.02
2012-10-14,84.6,74.6,65.8,72.1,60.8,51.1,93,66,33,30.07,29.87,18,5,22,1.39
2012-10-15,77.5,66.4,54.7,60.7,54.4,50.2,89,68,43,30.11,29.97,11,1,13,0.00
2012-10-16,71.6,66.4,61.3,66.1,61.1,54.5,90,83,77,29.98,29.75,10,3,13,0.00
2012-10-17,91.5,76.4,65.3,70.1,62.5,51.9,91,66,35,29.76,29.57,12,4,14,0.00
2012-10-18,76.7,67.2,49.7,53.5,41.3,30.3,75,42,19,29.98,29.73,16,4,21,0.00
2012-10-19,80.8,59.9,40.8,53.4,42.5,33.8,91,60,19,30.05,29.89,7,1,9,0.00
2012-10-20,84.2,69.8,50.5,70.5,59.6,41.5,82,70,60,29.91,29.74,21,4,21,0.00
2012-10-21,87.9,79.5,73.1,70.7,68.6,65.3,85,71,50,29.88,29.77,16,7,20,0.00
2012-10-22,87.0,77.3,70.3,71.7,68.2,64.4,91,75,49,29.94,29.83,16,7,18,0.00
2012-10-23,81.2,75.9,72.2,70.7,68.7,67.0,86,78,67,29.93,29.85,19,5,19,0.00
2012-10-24,84.1,74.1,67.6,67.2,65.3,62.0,91,75,48,29.95,29.81,16,5,17,0.00
2012-10-25,85.4,74.4,60.9,67.9,62.6,47.4,87,68,51,30.01,29.78,25,7,26,0.00
2012-10-26,60.8,53.7,49.2,47.4,41.6,34.3,82,64,53,30.30,30.01,19,9,24,0.08
2012-10-27,60.1,52.5,44.9,39.2,32.4,29.1,63,47,31,30.35,30.15,15,5,19,0.00
2012-10-28,63.7,48.6,33.5,36.2,31.8,28.2,86,56,26,30.31,30.17,11,2,14,0.00
2012-10-29,68.1,49.5,32.9,42.1,34.6,30.1,91,61,28,30.32,30.12,10,1,11,0.00
2012-10-30,76.2,61.2,39.9,54.2,47.4,35.4,88,63,44,30.14,29.95,10,2,20,0.00
2012-10-31,84.7,64.6,47.7,62.9,52.8,45.5,94,70,34,30.07,29.94,8,1,12,0.00
2012-11-1,86.5,66.6,47.3,65.0,51.8,44.8,92,64,26,30.07,29.93,9,1,15,0.00
2012-11-2,83.5,66.1,53.0,63.8,56.1,49.7,94,73,39,30.02,29.88,13,2,16,0.00
2012-11-3,83.4,71.4,60.0,67.1,61.4,56.8,94,73,41,30.06,29.93,12,2,17,0.00
2012-11-4,79.5,64.6,53.9,61.5,55.4,50.1,93,75,47,30.11,30.00,10,1,15,0.00
2012-11-5,83.3,67.0,48.3,64.1,52.3,39.3,94,63,36,30.09,29.92,15,3,18,0.00
2012-11-6,78.5,59.2,40.1,49.5,42.7,36.3,88,59,29,30.18,30.04,10,1,10,0.00
2012-11-7,78.8,62.1,43.2,51.0,46.0,39.9,91,60,32,30.20,30.03,10,2,13,0.00
2012-11-8,81.6,68.9,51.1,61.7,54.0,45.6,90,62,34,30.09,29.96,20,5,23,0.00
2012-11-9,81.5,73.6,66.9,62.8,60.0,55.6,84,64,43,30.03,29.89,20,9,28,0.00
2012-11-10,80.0,72.7,62.6,63.8,61.5,58.7,90,69,49,29.97,29.80,24,10,29,0.00
2012-11-11,81.3,71.4,59.1,64.3,50.1,21.4,78,50,22,30.18,29.77,25,8,30,0.00
2012-11-12,59.5,49.2,32.9,41.0,26.3,21.5,72,43,24,30.50,30.18,15,5,19,0.00
2012-11-13,54.5,42.4,29.6,36.3,26.8,22.6,84,58,29,30.52,30.33,14,2,18,0.00
2012-11-14,65.7,48.2,31.4,37.5,31.5,27.9,88,57,28,30.45,30.26,7,1,8,0.00
2012-11-15,63.0,53.4,34.4,42.0,37.5,28.3,81,56,41,30.32,30.20,11,2,12,0.00
2012-11-16,66.9,54.5,39.7,41.7,34.9,28.2,81,50,31,30.38,30.26,15,3,15,0.00
2012-11-17,66.6,50.8,30.6,37.5,31.3,24.0,86,51,20,30.41,30.27,10,2,13,0.00
2012-11-18,70.9,57.9,42.1,50.8,44.8,32.8,85,63,43,30.29,30.13,17,3,18,0.00
2012-11-19,71.4,60.0,50.9,58.2,53.3,47.5,91,79,62,30.24,30.10,12,2,15,0.00
2012-11-20,82.2,65.9,46.8,61.0,53.1,44.6,94,67,33,30.21,30.08,7,1,11,0.00
2012-11-21,78.4,65.0,50.7,60.9,53.2,48.0,92,68,36,30.23,30.11,12,1,13,0.00
2012-11-22,76.2,64.6,51.8,59.2,55.4,47.4,92,73,52,30.13,30.00,17,4,20,0.00
2012-11-23,65.4,60.7,53.6,55.3,41.2,23.5,93,54,26,30.38,30.10,22,6,26,0.00
2012-11-24,64.2,50.7,36.5,31.6,25.4,19.0,66,40,18,30.42,30.14,10,1,11,0.00
2012-11-25,76.9,62.0,41.0,57.5,46.3,26.1,86,57,44,30.14,29.88,15,4,18,0.00
2012-11-26,86.9,66.4,52.9,63.0,54.5,41.1,94,69,33,30.24,29.85,28,4,46,0.41
2012-11-27,60.6,50.1,36.6,42.0,36.2,31.4,92,61,41,30.39,30.23,18,5,22,0.00
2012-11-28,65.8,46.1,32.1,46.9,39.2,30.1,94,79,49,30.46,30.27,11,2,15,0.00
2012-11-29,68.8,57.5,37.8,55.0,49.2,35.4,94,75,60,30.30,30.11,13,2,14,0.00
2012-11-30,76.8,65.6,52.2,62.4,58.0,49.1,93,78,58,30.15,30.00,14,3,16,0.00
2012-12-1,78.4,70.4,58.8,64.9,62.6,55.9,92,77,59,30.08,29.97,14,4,19,0.00
2012-12-2,78.9,71.4,61.1,66.2,63.6,57.8,91,77,60,30.10,30.00,18,5,22,0.00
2012-12-3,74.1,66.3,59.8,65.4,61.2,56.9,92,84,72,30.02,29.92,12,3,19,0.00
2012-12-4,74.2,63.2,45.0,60.3,51.2,38.6,93,68,37,30.23,29.98,16,4,22,0.00
2012-12-5,71.7,55.0,36.2,43.2,38.2,30.9,89,56,29,30.28,30.03,8,1,11,0.00
2012-12-6,75.1,58.7,39.7,53.7,48.7,36.8,92,73,42,30.04,29.79,12,3,18,0.00
2012-12-7,73.2,61.2,50.5,62.7,56.3,46.8,93,85,65,29.89,29.76,10,2,13,0.00
2012-12-8,77.9,66.6,53.9,66.5,61.4,51.3,94,84,59,29.88,29.75,11,2,11,0.00
2012-12-9,78.5,66.6,51.3,66.8,57.5,38.3,92,74,47,29.97,29.73,19,5,25,0.00
2012-12-10,51.5,40.6,29.5,38.5,19.0,13.6,69,43,27,30.18,29.96,30,8,32,0.00
2012-12-11,53.9,38.3,19.8,26.3,18.9,15.6,86,50,25,30.27,30.11,9,2,13,0.00
2012-12-12,61.0,42.6,20.0,26.1,22.5,15.4,84,49,24,30.37,30.21,12,2,15,0.00
2012-12-13,66.0,51.9,30.4,48.3,36.6,23.3,79,57,42,30.32,30.16,12,4,20,0.00
2012-12-14,68.9,60.4,53.2,64.2,53.7,38.4,91,79,49,30.17,29.84,19,5,23,0.01
2012-12-15,71.8,62.7,56.1,64.3,51.1,40.3,93,69,32,29.96,29.83,11,1,16,0.09
2012-12-16,69.7,59.1,44.7,51.4,44.6,37.1,78,60,36,29.87,29.74,14,1,19,0.00
2012-12-17,71.7,54.9,38.2,38.9,31.7,24.0,76,46,18,29.97,29.84,18,3,20,0.00
2012-12-18,84.6,58.1,32.3,59.0,37.0,27.3,88,54,13,29.92,29.76,16,2,16,0.00
2012-12-19,80.2,70.3,60.8,64.0,57.6,13.2,89,68,15,29.95,29.57,29,8,39,0.00
2012-12-20,64.7,45.0,24.8,22.2,11.5,-1.5,62,29,10,30.49,29.89,39,12,41,0.00
2012-12-21,62.6,43.2,20.0,23.6,13.9,6.8,75,37,11,30.57,30.36,10,2,13,0.00
2012-12-22,66.3,47.7,27.7,50.5,33.6,13.4,86,58,42,30.40,30.06,18,3,22,0.00
2012-12-23,74.1,62.5,51.6,58.4,52.9,46.3,92,73,44,30.08,29.85,7,1,10,0.00
2012-12-24,66.2,53.4,36.4,48.4,32.2,26.7,94,49,23,30.03,29.72,10,2,13,0.00
2012-12-25,62.7,45.6,29.2,50.2,31.4,18.9,78,58,41,30.22,29.55,34,13,44,0.00
2012-12-26,42.3,32.0,24.9,21.2,19.0,15.5,75,59,41,30.34,30.16,22,5,28,0.00
2012-12-27,45.3,38.1,22.9,41.1,32.6,18.0,93,81,64,30.16,29.87,11,4,12,0.00
2012-12-28,54.9,43.5,29.4,45.7,36.7,22.9,94,78,59,30.28,29.85,30,7,30,0.01
2012-12-29,52.0,38.5,27.4,26.3,21.9,19.3,80,53,29,30.50,30.27,15,3,17,0.00
2012-12-30,47.4,37.5,24.2,40.8,25.6,18.3,82,63,44,30.50,30.19,13,4,15,0.00
2012-12-31,57.4,51.2,44.8,55.6,49.0,38.9,94,92,73,30.21,29.95,18,3,22,0.09
2013-1-1,55.3,47.6,36.1,53.7,43.0,29.9,95,84,70,30.28,29.97,18,6,19,0.11